sensor_id;sensor_type;location;lat;lon;timestamp;temperature;humidity
9265;DHT22;4669;49.594;10.958;2022-09-01T00:00:16;19.10;96.20
9265;DHT22;4669;49.594;10.958;2022-09-01T00:05:22;19.10;96.20
9265;DHT22;4669;49.594;10.958;2022-09-01T00:10:24;19.20;96.20
9265;DHT22;4669;49.594;10.958;2022-09-01T00:15:26;19.10;96.40
9265;DHT22;4669;49.594;10.958;2022-09-01T00:20:29;19.20;96.40
9265;DHT22;4669;49.594;10.958;2022-09-01T00:25:31;19.20;96.40
9265;DHT22;4669;49.594;10.958;2022-09-01T00:30:33;19.10;96.40
9265;DHT22;4669;49.594;10.958;2022-09-01T00:35:37;19.00;96.60
9265;DHT22;4669;49.594;10.958;2022-09-01T00:40:39;18.90;96.80
9265;DHT22;4669;49.594;10.958;2022-09-01T00:45:42;18.80;96.80
9265;DHT22;4669;49.594;10.958;2022-09-01T00:50:45;18.60;96.90
9265;DHT22;4669;49.594;10.958;2022-09-01T00:55:48;18.50;97.20
9265;DHT22;4669;49.594;10.958;2022-09-01T01:00:52;18.50;97.40
9265;DHT22;4669;49.594;10.958;2022-09-01T01:05:57;18.60;97.30
9265;DHT22;4669;49.594;10.958;2022-09-01T01:11:04;18.60;97.30
9265;DHT22;4669;49.594;10.958;2022-09-01T01:16:08;18.40;97.30
9265;DHT22;4669;49.594;10.958;2022-09-01T01:21:20;18.20;97.30
9265;DHT22;4669;49.594;10.958;2022-09-01T01:26:41;18.20;97.70
9265;DHT22;4669;49.594;10.958;2022-09-01T01:31:44;18.20;97.70
9265;DHT22;4669;49.594;10.958;2022-09-01T01:36:50;18.20;97.80
9265;DHT22;4669;49.594;10.958;2022-09-01T01:41:54;18.20;97.70
9265;DHT22;4669;49.594;10.958;2022-09-01T01:46:58;18.20;97.60
9265;DHT22;4669;49.594;10.958;2022-09-01T01:52:03;18.10;97.80
9265;DHT22;4669;49.594;10.958;2022-09-01T01:57:07;18.20;97.80
9265;DHT22;4669;49.594;10.958;2022-09-01T02:02:09;18.20;97.70
9265;DHT22;4669;49.594;10.958;2022-09-01T02:07:12;18.20;97.70
9265;DHT22;4669;49.594;10.958;2022-09-01T02:12:16;18.20;97.60
9265;DHT22;4669;49.594;10.958;2022-09-01T02:17:19;18.20;97.60
9265;DHT22;4669;49.594;10.958;2022-09-01T02:22:21;18.20;97.50
9265;DHT22;4669;49.594;10.958;2022-09-01T02:27:25;18.20;97.70
9265;DHT22;4669;49.594;10.958;2022-09-01T02:32:29;18.10;97.60
9265;DHT22;4669;49.594;10.958;2022-09-01T02:37:32;18.10;97.80
9265;DHT22;4669;49.594;10.958;2022-09-01T02:42:36;18.10;97.80
9265;DHT22;4669;49.594;10.958;2022-09-01T02:47:43;18.00;97.90
9265;DHT22;4669;49.594;10.958;2022-09-01T02:52:46;17.90;98.00
9265;DHT22;4669;49.594;10.958;2022-09-01T02:57:53;17.90;98.00
9265;DHT22;4669;49.594;10.958;2022-09-01T03:03:00;17.90;98.20
9265;DHT22;4669;49.594;10.958;2022-09-01T03:08:05;17.80;98.30
9265;DHT22;4669;49.594;10.958;2022-09-01T03:13:14;17.80;98.30
9265;DHT22;4669;49.594;10.958;2022-09-01T03:18:17;17.80;98.30
9265;DHT22;4669;49.594;10.958;2022-09-01T03:23:19;17.70;98.50
9265;DHT22;4669;49.594;10.958;2022-09-01T03:28:23;17.60;98.70
9265;DHT22;4669;49.594;10.958;2022-09-01T03:33:27;17.50;98.90
9265;DHT22;4669;49.594;10.958;2022-09-01T03:38:30;17.40;99.10
9265;DHT22;4669;49.594;10.958;2022-09-01T03:43:37;17.40;99.10
9265;DHT22;4669;49.594;10.958;2022-09-01T03:48:39;17.30;99.20
9265;DHT22;4669;49.594;10.958;2022-09-01T03:53:41;17.30;99.20
9265;DHT22;4669;49.594;10.958;2022-09-01T03:58:44;17.20;99.30
9265;DHT22;4669;49.594;10.958;2022-09-01T04:03:48;17.20;99.40
9265;DHT22;4669;49.594;10.958;2022-09-01T04:08:54;17.20;99.40
9265;DHT22;4669;49.594;10.958;2022-09-01T04:14:04;17.20;99.30
9265;DHT22;4669;49.594;10.958;2022-09-01T04:19:10;17.10;99.40
9265;DHT22;4669;49.594;10.958;2022-09-01T04:24:23;17.10;99.40
9265;DHT22;4669;49.594;10.958;2022-09-01T04:29:30;17.10;99.50
9265;DHT22;4669;49.594;10.958;2022-09-01T04:34:36;17.00;99.40
9265;DHT22;4669;49.594;10.958;2022-09-01T04:39:39;17.00;99.40
9265;DHT22;4669;49.594;10.958;2022-09-01T04:44:50;17.00;99.50
9265;DHT22;4669;49.594;10.958;2022-09-01T04:49:53;17.00;99.40
9265;DHT22;4669;49.594;10.958;2022-09-01T04:54:57;17.00;99.50
9265;DHT22;4669;49.594;10.958;2022-09-01T05:00:02;16.90;99.50
9265;DHT22;4669;49.594;10.958;2022-09-01T05:05:07;16.90;99.40
9265;DHT22;4669;49.594;10.958;2022-09-01T05:10:13;16.90;99.60
9265;DHT22;4669;49.594;10.958;2022-09-01T05:15:39;16.90;99.40
9265;DHT22;4669;49.594;10.958;2022-09-01T05:20:46;16.90;99.40
9265;DHT22;4669;49.594;10.958;2022-09-01T05:25:50;16.90;99.60
9265;DHT22;4669;49.594;10.958;2022-09-01T05:30:59;16.80;99.60
9265;DHT22;4669;49.594;10.958;2022-09-01T05:36:04;16.80;99.50
9265;DHT22;4669;49.594;10.958;2022-09-01T05:41:09;16.90;99.60
9265;DHT22;4669;49.594;10.958;2022-09-01T05:46:18;16.90;99.40
9265;DHT22;4669;49.594;10.958;2022-09-01T05:51:23;17.00;99.30
9265;DHT22;4669;49.594;10.958;2022-09-01T05:56:28;17.00;99.10
9265;DHT22;4669;49.594;10.958;2022-09-01T06:01:32;17.10;99.10
9265;DHT22;4669;49.594;10.958;2022-09-01T06:06:41;17.10;99.00
9265;DHT22;4669;49.594;10.958;2022-09-01T06:11:46;17.10;98.80
9265;DHT22;4669;49.594;10.958;2022-09-01T06:16:49;17.10;99.10
9265;DHT22;4669;49.594;10.958;2022-09-01T06:21:53;17.10;99.10
9265;DHT22;4669;49.594;10.958;2022-09-01T06:26:56;17.20;99.10
9265;DHT22;4669;49.594;10.958;2022-09-01T06:32:00;17.20;98.90
9265;DHT22;4669;49.594;10.958;2022-09-01T06:37:02;17.20;99.10
9265;DHT22;4669;49.594;10.958;2022-09-01T06:42:05;17.30;99.30
9265;DHT22;4669;49.594;10.958;2022-09-01T06:47:21;17.30;99.00
9265;DHT22;4669;49.594;10.958;2022-09-01T06:52:24;17.40;98.90
9265;DHT22;4669;49.594;10.958;2022-09-01T06:57:26;17.50;98.70
9265;DHT22;4669;49.594;10.958;2022-09-01T07:02:31;17.50;98.60
9265;DHT22;4669;49.594;10.958;2022-09-01T07:07:48;17.60;98.30
9265;DHT22;4669;49.594;10.958;2022-09-01T07:13:11;17.60;98.60
9265;DHT22;4669;49.594;10.958;2022-09-01T07:18:23;17.70;98.70
9265;DHT22;4669;49.594;10.958;2022-09-01T07:23:26;17.80;98.50
9265;DHT22;4669;49.594;10.958;2022-09-01T07:28:30;17.90;98.30
9265;DHT22;4669;49.594;10.958;2022-09-01T07:33:34;17.90;98.10
9265;DHT22;4669;49.594;10.958;2022-09-01T07:38:36;18.00;98.30
9265;DHT22;4669;49.594;10.958;2022-09-01T07:43:39;18.10;98.30
9265;DHT22;4669;49.594;10.958;2022-09-01T07:49:03;18.30;97.50
9265;DHT22;4669;49.594;10.958;2022-09-01T07:54:06;18.40;97.20
9265;DHT22;4669;49.594;10.958;2022-09-01T07:59:08;18.50;96.90
9265;DHT22;4669;49.594;10.958;2022-09-01T08:04:18;18.60;97.00
9265;DHT22;4669;49.594;10.958;2022-09-01T08:09:22;18.60;96.60
9265;DHT22;4669;49.594;10.958;2022-09-01T08:14:25;18.70;96.80
9265;DHT22;4669;49.594;10.958;2022-09-01T08:19:28;18.70;96.60
9265;DHT22;4669;49.594;10.958;2022-09-01T08:24:44;18.80;96.30
9265;DHT22;4669;49.594;10.958;2022-09-01T08:29:46;18.90;96.10
9265;DHT22;4669;49.594;10.958;2022-09-01T08:34:50;18.90;96.00
9265;DHT22;4669;49.594;10.958;2022-09-01T08:39:53;19.00;95.50
9265;DHT22;4669;49.594;10.958;2022-09-01T08:45:00;19.20;95.60
9265;DHT22;4669;49.594;10.958;2022-09-01T08:50:07;19.20;95.10
9265;DHT22;4669;49.594;10.958;2022-09-01T08:55:36;19.30;95.10
9265;DHT22;4669;49.594;10.958;2022-09-01T09:00:44;19.40;94.70
9265;DHT22;4669;49.594;10.958;2022-09-01T09:06:02;19.50;94.60
9265;DHT22;4669;49.594;10.958;2022-09-01T09:11:14;19.50;94.50
9265;DHT22;4669;49.594;10.958;2022-09-01T09:16:24;19.60;94.20
9265;DHT22;4669;49.594;10.958;2022-09-01T09:21:32;19.80;93.90
9265;DHT22;4669;49.594;10.958;2022-09-01T09:26:36;19.90;93.60
9265;DHT22;4669;49.594;10.958;2022-09-01T09:31:39;20.00;93.20
9265;DHT22;4669;49.594;10.958;2022-09-01T09:36:44;20.10;93.10
9265;DHT22;4669;49.594;10.958;2022-09-01T09:42:03;20.10;92.80
9265;DHT22;4669;49.594;10.958;2022-09-01T09:47:09;20.30;92.50
9265;DHT22;4669;49.594;10.958;2022-09-01T09:52:15;20.30;92.60
9265;DHT22;4669;49.594;10.958;2022-09-01T09:57:18;20.40;92.10
9265;DHT22;4669;49.594;10.958;2022-09-01T10:02:24;20.60;91.90
9265;DHT22;4669;49.594;10.958;2022-09-01T10:07:34;20.80;90.80
9265;DHT22;4669;49.594;10.958;2022-09-01T10:12:36;21.20;90.30
9265;DHT22;4669;49.594;10.958;2022-09-01T10:17:41;21.50;89.20
9265;DHT22;4669;49.594;10.958;2022-09-01T10:22:45;21.40;89.00
9265;DHT22;4669;49.594;10.958;2022-09-01T10:27:50;21.40;88.40
9265;DHT22;4669;49.594;10.958;2022-09-01T10:32:54;21.50;88.20
9265;DHT22;4669;49.594;10.958;2022-09-01T10:37:59;21.50;88.30
9265;DHT22;4669;49.594;10.958;2022-09-01T10:43:32;21.50;88.00
9265;DHT22;4669;49.594;10.958;2022-09-01T10:48:34;21.70;88.80
9265;DHT22;4669;49.594;10.958;2022-09-01T10:53:40;21.80;88.40
9265;DHT22;4669;49.594;10.958;2022-09-01T10:58:55;21.90;88.20
9265;DHT22;4669;49.594;10.958;2022-09-01T11:04:01;22.10;87.00
9265;DHT22;4669;49.594;10.958;2022-09-01T11:09:06;22.10;85.50
9265;DHT22;4669;49.594;10.958;2022-09-01T11:14:18;22.10;86.40
9265;DHT22;4669;49.594;10.958;2022-09-01T11:19:38;22.00;86.00
9265;DHT22;4669;49.594;10.958;2022-09-01T11:24:48;21.90;85.70
9265;DHT22;4669;49.594;10.958;2022-09-01T11:29:54;21.80;84.30
9265;DHT22;4669;49.594;10.958;2022-09-01T11:34:56;21.70;85.40
9265;DHT22;4669;49.594;10.958;2022-09-01T11:40:02;21.60;86.10
9265;DHT22;4669;49.594;10.958;2022-09-01T11:45:11;21.60;86.20
9265;DHT22;4669;49.594;10.958;2022-09-01T11:50:19;21.60;87.20
9265;DHT22;4669;49.594;10.958;2022-09-01T11:55:33;21.60;87.20
9265;DHT22;4669;49.594;10.958;2022-09-01T12:00:37;21.60;87.60
9265;DHT22;4669;49.594;10.958;2022-09-01T12:05:39;21.60;87.40
9265;DHT22;4669;49.594;10.958;2022-09-01T12:10:43;21.60;88.00
9265;DHT22;4669;49.594;10.958;2022-09-01T12:15:52;21.70;88.70
9265;DHT22;4669;49.594;10.958;2022-09-01T12:20:56;21.80;88.40
9265;DHT22;4669;49.594;10.958;2022-09-01T12:26:03;21.80;88.50
9265;DHT22;4669;49.594;10.958;2022-09-01T12:31:12;21.80;89.00
9265;DHT22;4669;49.594;10.958;2022-09-01T12:36:19;21.90;88.60
9265;DHT22;4669;49.594;10.958;2022-09-01T12:41:26;22.00;88.30
9265;DHT22;4669;49.594;10.958;2022-09-01T12:46:42;22.10;88.70
9265;DHT22;4669;49.594;10.958;2022-09-01T12:51:45;22.10;87.30
9265;DHT22;4669;49.594;10.958;2022-09-01T12:56:50;22.20;87.30
9265;DHT22;4669;49.594;10.958;2022-09-01T13:01:52;22.20;85.90
9265;DHT22;4669;49.594;10.958;2022-09-01T13:06:56;22.30;85.90
9265;DHT22;4669;49.594;10.958;2022-09-01T13:12:18;22.40;85.00
9265;DHT22;4669;49.594;10.958;2022-09-01T13:17:20;22.40;84.50
9265;DHT22;4669;49.594;10.958;2022-09-01T13:22:23;22.40;84.40
9265;DHT22;4669;49.594;10.958;2022-09-01T13:27:27;22.50;85.40
9265;DHT22;4669;49.594;10.958;2022-09-01T13:32:29;22.60;87.00
9265;DHT22;4669;49.594;10.958;2022-09-01T13:37:31;22.70;86.00
9265;DHT22;4669;49.594;10.958;2022-09-01T13:42:34;22.70;86.10
9265;DHT22;4669;49.594;10.958;2022-09-01T13:47:36;22.60;86.00
9265;DHT22;4669;49.594;10.958;2022-09-01T13:52:40;22.40;87.50
9265;DHT22;4669;49.594;10.958;2022-09-01T13:57:44;22.30;87.50
9265;DHT22;4669;49.594;10.958;2022-09-01T14:02:48;22.50;84.60
9265;DHT22;4669;49.594;10.958;2022-09-01T14:07:52;22.80;84.20
9265;DHT22;4669;49.594;10.958;2022-09-01T14:12:56;23.20;82.90
9265;DHT22;4669;49.594;10.958;2022-09-01T14:17:59;23.40;81.60
9265;DHT22;4669;49.594;10.958;2022-09-01T14:23:01;23.60;81.70
9265;DHT22;4669;49.594;10.958;2022-09-01T14:28:05;23.80;79.60
9265;DHT22;4669;49.594;10.958;2022-09-01T14:33:07;23.90;78.80
9265;DHT22;4669;49.594;10.958;2022-09-01T14:38:11;24.10;76.80
9265;DHT22;4669;49.594;10.958;2022-09-01T14:43:14;24.30;76.20
9265;DHT22;4669;49.594;10.958;2022-09-01T14:48:18;24.30;74.60
9265;DHT22;4669;49.594;10.958;2022-09-01T14:53:20;24.60;72.80
9265;DHT22;4669;49.594;10.958;2022-09-01T14:58:25;24.90;73.50
9265;DHT22;4669;49.594;10.958;2022-09-01T15:03:28;25.20;75.10
9265;DHT22;4669;49.594;10.958;2022-09-01T15:08:30;24.90;76.30
9265;DHT22;4669;49.594;10.958;2022-09-01T15:13:33;24.30;77.40
9265;DHT22;4669;49.594;10.958;2022-09-01T15:18:35;23.80;77.90
9265;DHT22;4669;49.594;10.958;2022-09-01T15:23:38;23.30;79.40
9265;DHT22;4669;49.594;10.958;2022-09-01T15:28:42;22.90;80.40
9265;DHT22;4669;49.594;10.958;2022-09-01T15:33:45;22.70;80.60
9265;DHT22;4669;49.594;10.958;2022-09-01T15:38:47;22.50;81.70
9265;DHT22;4669;49.594;10.958;2022-09-01T15:43:51;22.40;81.80
9265;DHT22;4669;49.594;10.958;2022-09-01T15:48:54;22.30;82.50
9265;DHT22;4669;49.594;10.958;2022-09-01T15:53:58;22.20;81.90
9265;DHT22;4669;49.594;10.958;2022-09-01T15:59:03;22.10;81.70
9265;DHT22;4669;49.594;10.958;2022-09-01T16:04:08;22.00;81.70
9265;DHT22;4669;49.594;10.958;2022-09-01T16:09:11;22.00;80.30
9265;DHT22;4669;49.594;10.958;2022-09-01T16:14:15;22.10;80.40
9265;DHT22;4669;49.594;10.958;2022-09-01T16:19:28;22.10;79.90
9265;DHT22;4669;49.594;10.958;2022-09-01T16:24:38;22.00;80.30
9265;DHT22;4669;49.594;10.958;2022-09-01T16:29:46;22.00;79.80
9265;DHT22;4669;49.594;10.958;2022-09-01T16:34:49;21.90;81.40
9265;DHT22;4669;49.594;10.958;2022-09-01T16:39:59;21.80;81.30
9265;DHT22;4669;49.594;10.958;2022-09-01T16:45:08;21.70;81.10
9265;DHT22;4669;49.594;10.958;2022-09-01T16:50:19;21.70;81.40
9265;DHT22;4669;49.594;10.958;2022-09-01T16:55:28;21.60;81.00
9265;DHT22;4669;49.594;10.958;2022-09-01T17:00:40;21.60;82.20
9265;DHT22;4669;49.594;10.958;2022-09-01T17:05:52;21.50;82.20
9265;DHT22;4669;49.594;10.958;2022-09-01T17:10:57;21.30;82.60
9265;DHT22;4669;49.594;10.958;2022-09-01T17:16:10;21.20;82.60
9265;DHT22;4669;49.594;10.958;2022-09-01T17:21:17;21.20;83.40
9265;DHT22;4669;49.594;10.958;2022-09-01T17:26:24;21.20;83.70
9265;DHT22;4669;49.594;10.958;2022-09-01T17:31:45;21.10;84.00
9265;DHT22;4669;49.594;10.958;2022-09-01T17:36:58;21.00;84.20
9265;DHT22;4669;49.594;10.958;2022-09-01T17:42:13;20.90;84.40
9265;DHT22;4669;49.594;10.958;2022-09-01T17:47:26;20.80;84.40
9265;DHT22;4669;49.594;10.958;2022-09-01T17:52:39;20.60;85.20
9265;DHT22;4669;49.594;10.958;2022-09-01T17:57:48;20.60;85.70
9265;DHT22;4669;49.594;10.958;2022-09-01T18:03:08;20.50;86.20
9265;DHT22;4669;49.594;10.958;2022-09-01T18:08:28;20.40;86.60
9265;DHT22;4669;49.594;10.958;2022-09-01T18:13:35;20.40;86.20
9265;DHT22;4669;49.594;10.958;2022-09-01T18:18:41;20.30;87.00
9265;DHT22;4669;49.594;10.958;2022-09-01T18:23:47;20.20;87.00
9265;DHT22;4669;49.594;10.958;2022-09-01T18:28:50;20.10;88.10
9265;DHT22;4669;49.594;10.958;2022-09-01T18:34:02;20.10;87.60
9265;DHT22;4669;49.594;10.958;2022-09-01T18:44:29;19.80;87.80
9265;DHT22;4669;49.594;10.958;2022-09-01T18:49:45;19.80;88.70
9265;DHT22;4669;49.594;10.958;2022-09-01T18:54:54;19.70;88.60
9265;DHT22;4669;49.594;10.958;2022-09-01T19:00:09;19.70;88.70
9265;DHT22;4669;49.594;10.958;2022-09-01T19:05:29;19.60;88.30
9265;DHT22;4669;49.594;10.958;2022-09-01T19:10:41;19.50;88.80
9265;DHT22;4669;49.594;10.958;2022-09-01T19:15:49;19.50;89.30
9265;DHT22;4669;49.594;10.958;2022-09-01T19:20:59;19.40;89.10
9265;DHT22;4669;49.594;10.958;2022-09-01T19:26:05;19.30;89.50
9265;DHT22;4669;49.594;10.958;2022-09-01T19:31:12;19.20;89.20
9265;DHT22;4669;49.594;10.958;2022-09-01T19:36:22;19.10;89.70
9265;DHT22;4669;49.594;10.958;2022-09-01T19:41:29;19.10;89.80
9265;DHT22;4669;49.594;10.958;2022-09-01T19:46:37;19.00;90.10
9265;DHT22;4669;49.594;10.958;2022-09-01T19:51:47;19.00;90.40
9265;DHT22;4669;49.594;10.958;2022-09-01T19:56:55;18.90;90.10
9265;DHT22;4669;49.594;10.958;2022-09-01T20:02:01;18.90;90.20
9265;DHT22;4669;49.594;10.958;2022-09-01T20:07:10;18.90;89.70
9265;DHT22;4669;49.594;10.958;2022-09-01T20:12:21;18.80;89.70
9265;DHT22;4669;49.594;10.958;2022-09-01T20:17:28;18.70;88.50
9265;DHT22;4669;49.594;10.958;2022-09-01T20:22:37;18.80;88.60
9265;DHT22;4669;49.594;10.958;2022-09-01T20:27:49;18.70;88.40
9265;DHT22;4669;49.594;10.958;2022-09-01T20:32:58;18.70;88.20
9265;DHT22;4669;49.594;10.958;2022-09-01T20:38:08;18.70;88.20
9265;DHT22;4669;49.594;10.958;2022-09-01T20:43:36;18.70;87.80
9265;DHT22;4669;49.594;10.958;2022-09-01T20:48:40;18.60;87.60
9265;DHT22;4669;49.594;10.958;2022-09-01T20:53:58;18.60;87.60
9265;DHT22;4669;49.594;10.958;2022-09-01T20:59:05;18.60;87.40
9265;DHT22;4669;49.594;10.958;2022-09-01T21:04:28;18.50;87.20
9265;DHT22;4669;49.594;10.958;2022-09-01T21:09:40;18.50;86.30
9265;DHT22;4669;49.594;10.958;2022-09-01T21:14:51;18.50;86.50
9265;DHT22;4669;49.594;10.958;2022-09-01T21:20:02;18.50;86.50
9265;DHT22;4669;49.594;10.958;2022-09-01T21:25:08;18.50;86.00
9265;DHT22;4669;49.594;10.958;2022-09-01T21:30:12;18.50;86.20
9265;DHT22;4669;49.594;10.958;2022-09-01T21:35:16;18.40;86.60
9265;DHT22;4669;49.594;10.958;2022-09-01T21:40:22;18.30;86.00
9265;DHT22;4669;49.594;10.958;2022-09-01T21:45:25;18.30;85.80
9265;DHT22;4669;49.594;10.958;2022-09-01T21:50:27;18.30;85.30
9265;DHT22;4669;49.594;10.958;2022-09-01T21:55:31;18.20;85.60
